sensor_id;sensor_type;location;lat;lon;timestamp;P1;durP1;ratioP1;P2;durP2;ratioP2
5085;SDS011;4715;51.660;7.082;2022-08-18T00:01:17;13.40;;;12.10;;
5085;SDS011;4715;51.660;7.082;2022-08-18T00:03:41;12.37;;;11.27;;
5085;SDS011;4715;51.660;7.082;2022-08-18T00:06:05;12.80;;;11.70;;
5085;SDS011;4715;51.660;7.082;2022-08-18T00:08:26;12.87;;;11.70;;
5085;SDS011;4715;51.660;7.082;2022-08-18T00:10:48;13.50;;;12.27;;
5085;SDS011;4715;51.660;7.082;2022-08-18T00:13:10;14.93;;;13.63;;
5085;SDS011;4715;51.660;7.082;2022-08-18T00:15:32;15.17;;;13.80;;
5085;SDS011;4715;51.660;7.082;2022-08-18T00:17:54;16.03;;;14.53;;
5085;SDS011;4715;51.660;7.082;2022-08-18T00:20:16;18.80;;;15.20;;
5085;SDS011;4715;51.660;7.082;2022-08-18T00:22:42;18.37;;;16.57;;
5085;SDS011;4715;51.660;7.082;2022-08-18T00:25:05;17.90;;;16.30;;
5085;SDS011;4715;51.660;7.082;2022-08-18T00:27:29;19.67;;;17.57;;
5085;SDS011;4715;51.660;7.082;2022-08-18T00:29:52;17.97;;;16.17;;
5085;SDS011;4715;51.660;7.082;2022-08-18T00:32:16;22.30;;;19.93;;
5085;SDS011;4715;51.660;7.082;2022-08-18T00:34:40;20.63;;;18.50;;
5085;SDS011;4715;51.660;7.082;2022-08-18T00:37:02;23.90;;;21.37;;
5085;SDS011;4715;51.660;7.082;2022-08-18T00:39:25;22.37;;;19.97;;
5085;SDS011;4715;51.660;7.082;2022-08-18T00:41:49;20.27;;;18.17;;
5085;SDS011;4715;51.660;7.082;2022-08-18T00:44:12;17.97;;;16.17;;
5085;SDS011;4715;51.660;7.082;2022-08-18T00:46:36;19.50;;;17.40;;
5085;SDS011;4715;51.660;7.082;2022-08-18T00:48:58;16.30;;;14.60;;
5085;SDS011;4715;51.660;7.082;2022-08-18T00:51:22;15.20;;;13.80;;
5085;SDS011;4715;51.660;7.082;2022-08-18T00:53:47;13.33;;;12.03;;
5085;SDS011;4715;51.660;7.082;2022-08-18T00:56:15;13.93;;;12.63;;
5085;SDS011;4715;51.660;7.082;2022-08-18T00:58:42;13.07;;;11.83;;
5085;SDS011;4715;51.660;7.082;2022-08-18T01:01:08;17.20;;;15.50;;
5085;SDS011;4715;51.660;7.082;2022-08-18T01:03:33;16.33;;;14.80;;
5085;SDS011;4715;51.660;7.082;2022-08-18T01:06:00;20.00;;;17.80;;
5085;SDS011;4715;51.660;7.082;2022-08-18T01:08:27;19.23;;;16.80;;
5085;SDS011;4715;51.660;7.082;2022-08-18T01:10:49;17.50;;;15.73;;
5085;SDS011;4715;51.660;7.082;2022-08-18T01:13:14;17.90;;;16.20;;
5085;SDS011;4715;51.660;7.082;2022-08-18T01:15:38;16.30;;;14.70;;
5085;SDS011;4715;51.660;7.082;2022-08-18T01:18:02;15.30;;;13.80;;
5085;SDS011;4715;51.660;7.082;2022-08-18T01:20:46;15.27;;;13.77;;
5085;SDS011;4715;51.660;7.082;2022-08-18T01:23:33;17.60;;;15.87;;
5085;SDS011;4715;51.660;7.082;2022-08-18T01:25:56;16.10;;;14.50;;
5085;SDS011;4715;51.660;7.082;2022-08-18T01:28:21;19.23;;;17.10;;
5085;SDS011;4715;51.660;7.082;2022-08-18T01:30:44;19.53;;;17.53;;
5085;SDS011;4715;51.660;7.082;2022-08-18T01:33:08;19.03;;;17.13;;
5085;SDS011;4715;51.660;7.082;2022-08-18T01:35:31;17.30;;;15.60;;
5085;SDS011;4715;51.660;7.082;2022-08-18T01:37:54;18.43;;;16.60;;
5085;SDS011;4715;51.660;7.082;2022-08-18T01:40:18;19.53;;;17.43;;
5085;SDS011;4715;51.660;7.082;2022-08-18T01:42:42;16.70;;;15.00;;
5085;SDS011;4715;51.660;7.082;2022-08-18T01:45:05;18.00;;;16.17;;
5085;SDS011;4715;51.660;7.082;2022-08-18T01:47:29;28.73;;;22.77;;
5085;SDS011;4715;51.660;7.082;2022-08-18T01:49:52;25.90;;;22.37;;
5085;SDS011;4715;51.660;7.082;2022-08-18T01:52:17;24.80;;;21.47;;
5085;SDS011;4715;51.660;7.082;2022-08-18T01:54:41;24.87;;;21.00;;
5085;SDS011;4715;51.660;7.082;2022-08-18T01:57:07;28.43;;;23.03;;
5085;SDS011;4715;51.660;7.082;2022-08-18T01:59:33;23.33;;;20.27;;
5085;SDS011;4715;51.660;7.082;2022-08-18T02:01:55;24.50;;;20.17;;
5085;SDS011;4715;51.660;7.082;2022-08-18T02:04:19;29.10;;;24.67;;
5085;SDS011;4715;51.660;7.082;2022-08-18T02:06:46;29.87;;;23.77;;
5085;SDS011;4715;51.660;7.082;2022-08-18T02:09:10;32.13;;;24.40;;
5085;SDS011;4715;51.660;7.082;2022-08-18T02:11:32;30.30;;;24.70;;
5085;SDS011;4715;51.660;7.082;2022-08-18T02:13:55;32.83;;;25.37;;
5085;SDS011;4715;51.660;7.082;2022-08-18T02:16:17;26.87;;;22.53;;
5085;SDS011;4715;51.660;7.082;2022-08-18T02:18:39;29.47;;;23.50;;
5085;SDS011;4715;51.660;7.082;2022-08-18T02:21:06;28.40;;;22.27;;
5085;SDS011;4715;51.660;7.082;2022-08-18T02:23:30;29.47;;;22.27;;
5085;SDS011;4715;51.660;7.082;2022-08-18T02:25:52;28.90;;;22.50;;
5085;SDS011;4715;51.660;7.082;2022-08-18T02:28:14;25.93;;;21.20;;
5085;SDS011;4715;51.660;7.082;2022-08-18T02:30:37;24.10;;;20.33;;
5085;SDS011;4715;51.660;7.082;2022-08-18T02:33:00;21.70;;;17.40;;
5085;SDS011;4715;51.660;7.082;2022-08-18T02:35:22;22.97;;;18.00;;
5085;SDS011;4715;51.660;7.082;2022-08-18T02:37:43;23.50;;;19.90;;
5085;SDS011;4715;51.660;7.082;2022-08-18T02:40:07;28.93;;;24.13;;
5085;SDS011;4715;51.660;7.082;2022-08-18T02:42:31;29.20;;;23.20;;
5085;SDS011;4715;51.660;7.082;2022-08-18T02:44:53;26.33;;;22.00;;
5085;SDS011;4715;51.660;7.082;2022-08-18T02:47:18;31.83;;;25.97;;
5085;SDS011;4715;51.660;7.082;2022-08-18T02:49:40;30.47;;;23.67;;
5085;SDS011;4715;51.660;7.082;2022-08-18T02:52:02;32.27;;;24.83;;
5085;SDS011;4715;51.660;7.082;2022-08-18T02:54:25;27.20;;;23.03;;
5085;SDS011;4715;51.660;7.082;2022-08-18T02:56:47;23.87;;;20.43;;
5085;SDS011;4715;51.660;7.082;2022-08-18T02:59:14;25.17;;;20.43;;
5085;SDS011;4715;51.660;7.082;2022-08-18T03:01:41;23.97;;;20.87;;
5085;SDS011;4715;51.660;7.082;2022-08-18T03:04:08;23.00;;;20.27;;
5085;SDS011;4715;51.660;7.082;2022-08-18T03:06:32;23.97;;;21.40;;
5085;SDS011;4715;51.660;7.082;2022-08-18T03:08:56;25.50;;;21.60;;
5085;SDS011;4715;51.660;7.082;2022-08-18T03:11:19;28.80;;;23.20;;
5085;SDS011;4715;51.660;7.082;2022-08-18T03:13:43;30.40;;;24.77;;
5085;SDS011;4715;51.660;7.082;2022-08-18T03:16:06;27.97;;;23.07;;
5085;SDS011;4715;51.660;7.082;2022-08-18T03:18:27;34.43;;;25.20;;
5085;SDS011;4715;51.660;7.082;2022-08-18T03:20:51;29.80;;;23.30;;
5085;SDS011;4715;51.660;7.082;2022-08-18T03:23:13;24.97;;;22.27;;
5085;SDS011;4715;51.660;7.082;2022-08-18T03:25:34;27.57;;;22.40;;
5085;SDS011;4715;51.660;7.082;2022-08-18T03:27:57;27.80;;;21.70;;
5085;SDS011;4715;51.660;7.082;2022-08-18T03:30:19;25.57;;;20.70;;
5085;SDS011;4715;51.660;7.082;2022-08-18T03:32:42;30.10;;;22.80;;
5085;SDS011;4715;51.660;7.082;2022-08-18T03:35:05;31.77;;;25.60;;
5085;SDS011;4715;51.660;7.082;2022-08-18T03:37:29;27.87;;;22.60;;
5085;SDS011;4715;51.660;7.082;2022-08-18T03:39:51;30.37;;;25.30;;
5085;SDS011;4715;51.660;7.082;2022-08-18T03:42:13;31.47;;;23.20;;
5085;SDS011;4715;51.660;7.082;2022-08-18T03:44:35;24.93;;;20.20;;
5085;SDS011;4715;51.660;7.082;2022-08-18T03:46:57;29.63;;;22.17;;
5085;SDS011;4715;51.660;7.082;2022-08-18T03:49:20;22.70;;;19.47;;
5085;SDS011;4715;51.660;7.082;2022-08-18T03:51:42;29.10;;;21.73;;
5085;SDS011;4715;51.660;7.082;2022-08-18T03:54:07;31.93;;;23.20;;
5085;SDS011;4715;51.660;7.082;2022-08-18T03:56:33;23.47;;;18.90;;
5085;SDS011;4715;51.660;7.082;2022-08-18T03:58:58;24.97;;;20.47;;
5085;SDS011;4715;51.660;7.082;2022-08-18T04:01:23;24.23;;;18.73;;
5085;SDS011;4715;51.660;7.082;2022-08-18T04:03:49;22.10;;;18.17;;
5085;SDS011;4715;51.660;7.082;2022-08-18T04:06:13;22.37;;;19.10;;
5085;SDS011;4715;51.660;7.082;2022-08-18T04:08:37;19.43;;;16.47;;
5085;SDS011;4715;51.660;7.082;2022-08-18T04:11:01;16.00;;;13.87;;
5085;SDS011;4715;51.660;7.082;2022-08-18T04:13:23;15.60;;;13.43;;
5085;SDS011;4715;51.660;7.082;2022-08-18T04:15:45;15.20;;;13.60;;
5085;SDS011;4715;51.660;7.082;2022-08-18T04:18:07;17.83;;;14.50;;
5085;SDS011;4715;51.660;7.082;2022-08-18T04:20:30;30.40;;;22.33;;
5085;SDS011;4715;51.660;7.082;2022-08-18T04:22:52;36.47;;;24.43;;
5085;SDS011;4715;51.660;7.082;2022-08-18T04:25:15;33.10;;;25.30;;
5085;SDS011;4715;51.660;7.082;2022-08-18T04:27:41;30.67;;;23.33;;
5085;SDS011;4715;51.660;7.082;2022-08-18T04:30:04;29.53;;;23.13;;
5085;SDS011;4715;51.660;7.082;2022-08-18T04:32:28;28.10;;;21.23;;
5085;SDS011;4715;51.660;7.082;2022-08-18T04:34:51;27.33;;;20.57;;
5085;SDS011;4715;51.660;7.082;2022-08-18T04:37:13;28.13;;;21.77;;
5085;SDS011;4715;51.660;7.082;2022-08-18T04:39:36;22.07;;;18.60;;
5085;SDS011;4715;51.660;7.082;2022-08-18T04:41:58;20.57;;;16.50;;
5085;SDS011;4715;51.660;7.082;2022-08-18T04:44:24;22.87;;;18.40;;
5085;SDS011;4715;51.660;7.082;2022-08-18T04:46:46;23.50;;;18.47;;
5085;SDS011;4715;51.660;7.082;2022-08-18T04:49:10;28.67;;;20.30;;
5085;SDS011;4715;51.660;7.082;2022-08-18T04:51:32;25.47;;;19.97;;
5085;SDS011;4715;51.660;7.082;2022-08-18T04:53:55;31.47;;;22.57;;
5085;SDS011;4715;51.660;7.082;2022-08-18T04:56:18;31.33;;;24.80;;
5085;SDS011;4715;51.660;7.082;2022-08-18T04:58:44;33.03;;;23.73;;
5085;SDS011;4715;51.660;7.082;2022-08-18T05:01:12;34.20;;;25.93;;
5085;SDS011;4715;51.660;7.082;2022-08-18T05:03:36;26.83;;;21.30;;
5085;SDS011;4715;51.660;7.082;2022-08-18T05:05:58;33.77;;;24.50;;
5085;SDS011;4715;51.660;7.082;2022-08-18T05:08:24;26.00;;;19.27;;
5085;SDS011;4715;51.660;7.082;2022-08-18T05:10:46;25.97;;;19.20;;
5085;SDS011;4715;51.660;7.082;2022-08-18T05:13:08;28.67;;;20.83;;
5085;SDS011;4715;51.660;7.082;2022-08-18T05:15:30;28.57;;;21.00;;
5085;SDS011;4715;51.660;7.082;2022-08-18T05:17:54;30.93;;;22.97;;
5085;SDS011;4715;51.660;7.082;2022-08-18T05:20:16;31.67;;;21.67;;
5085;SDS011;4715;51.660;7.082;2022-08-18T05:22:40;27.83;;;19.70;;
5085;SDS011;4715;51.660;7.082;2022-08-18T05:25:05;24.67;;;20.67;;
5085;SDS011;4715;51.660;7.082;2022-08-18T05:27:31;27.27;;;20.07;;
5085;SDS011;4715;51.660;7.082;2022-08-18T05:29:54;27.40;;;19.60;;
5085;SDS011;4715;51.660;7.082;2022-08-18T05:32:16;23.83;;;19.70;;
5085;SDS011;4715;51.660;7.082;2022-08-18T05:34:40;29.70;;;22.37;;
5085;SDS011;4715;51.660;7.082;2022-08-18T05:37:06;25.83;;;21.30;;
5085;SDS011;4715;51.660;7.082;2022-08-18T05:39:38;24.00;;;18.83;;
5085;SDS011;4715;51.660;7.082;2022-08-18T05:42:10;25.77;;;18.73;;
5085;SDS011;4715;51.660;7.082;2022-08-18T05:44:38;33.60;;;22.87;;
5085;SDS011;4715;51.660;7.082;2022-08-18T05:47:04;26.30;;;19.50;;
5085;SDS011;4715;51.660;7.082;2022-08-18T05:49:31;33.33;;;21.13;;
5085;SDS011;4715;51.660;7.082;2022-08-18T05:51:58;33.90;;;22.90;;
5085;SDS011;4715;51.660;7.082;2022-08-18T05:54:23;35.30;;;25.00;;
5085;SDS011;4715;51.660;7.082;2022-08-18T05:57:07;35.80;;;25.43;;
5085;SDS011;4715;51.660;7.082;2022-08-18T05:59:33;34.50;;;22.90;;
5085;SDS011;4715;51.660;7.082;2022-08-18T06:01:59;29.17;;;21.10;;
5085;SDS011;4715;51.660;7.082;2022-08-18T06:04:36;27.70;;;19.33;;
5085;SDS011;4715;51.660;7.082;2022-08-18T06:07:06;37.10;;;22.10;;
5085;SDS011;4715;51.660;7.082;2022-08-18T06:09:33;33.10;;;21.90;;
5085;SDS011;4715;51.660;7.082;2022-08-18T06:12:02;30.90;;;21.73;;
5085;SDS011;4715;51.660;7.082;2022-08-18T06:14:29;25.93;;;18.60;;
5085;SDS011;4715;51.660;7.082;2022-08-18T06:16:53;26.93;;;19.07;;
5085;SDS011;4715;51.660;7.082;2022-08-18T06:19:29;28.70;;;19.00;;
5085;SDS011;4715;51.660;7.082;2022-08-18T06:21:59;24.87;;;18.13;;
5085;SDS011;4715;51.660;7.082;2022-08-18T06:24:33;26.83;;;17.60;;
5085;SDS011;4715;51.660;7.082;2022-08-18T06:27:02;24.97;;;18.60;;
5085;SDS011;4715;51.660;7.082;2022-08-18T06:29:38;23.00;;;17.23;;
5085;SDS011;4715;51.660;7.082;2022-08-18T06:32:12;23.00;;;16.73;;
5085;SDS011;4715;51.660;7.082;2022-08-18T06:35:02;21.50;;;17.37;;
5085;SDS011;4715;51.660;7.082;2022-08-18T06:37:34;22.57;;;18.33;;
5085;SDS011;4715;51.660;7.082;2022-08-18T06:40:22;25.07;;;18.87;;
5085;SDS011;4715;51.660;7.082;2022-08-18T06:42:44;34.67;;;23.83;;
5085;SDS011;4715;51.660;7.082;2022-08-18T06:45:08;36.40;;;25.60;;
5085;SDS011;4715;51.660;7.082;2022-08-18T06:47:38;36.17;;;25.20;;
5085;SDS011;4715;51.660;7.082;2022-08-18T06:50:10;44.27;;;25.97;;
5085;SDS011;4715;51.660;7.082;2022-08-18T06:52:52;32.20;;;23.13;;
5085;SDS011;4715;51.660;7.082;2022-08-18T06:55:17;33.40;;;22.23;;
5085;SDS011;4715;51.660;7.082;2022-08-18T06:57:52;38.70;;;25.10;;
5085;SDS011;4715;51.660;7.082;2022-08-18T07:00:19;29.47;;;22.50;;
5085;SDS011;4715;51.660;7.082;2022-08-18T07:02:45;29.40;;;21.40;;
5085;SDS011;4715;51.660;7.082;2022-08-18T07:05:18;32.17;;;22.30;;
5085;SDS011;4715;51.660;7.082;2022-08-18T07:07:45;28.13;;;20.53;;
5085;SDS011;4715;51.660;7.082;2022-08-18T07:10:30;30.47;;;21.57;;
5085;SDS011;4715;51.660;7.082;2022-08-18T07:13:04;30.67;;;19.63;;
5085;SDS011;4715;51.660;7.082;2022-08-18T07:15:27;29.80;;;21.60;;
5085;SDS011;4715;51.660;7.082;2022-08-18T07:17:52;29.73;;;21.30;;
5085;SDS011;4715;51.660;7.082;2022-08-18T07:20:25;29.20;;;21.00;;
5085;SDS011;4715;51.660;7.082;2022-08-18T07:22:53;31.77;;;21.00;;
5085;SDS011;4715;51.660;7.082;2022-08-18T07:25:21;33.50;;;23.27;;
5085;SDS011;4715;51.660;7.082;2022-08-18T07:27:48;32.10;;;22.90;;
5085;SDS011;4715;51.660;7.082;2022-08-18T07:30:24;31.67;;;24.60;;
5085;SDS011;4715;51.660;7.082;2022-08-18T07:32:53;29.80;;;21.97;;
5085;SDS011;4715;51.660;7.082;2022-08-18T07:35:21;31.50;;;21.93;;
5085;SDS011;4715;51.660;7.082;2022-08-18T07:37:48;27.13;;;18.40;;
5085;SDS011;4715;51.660;7.082;2022-08-18T07:40:20;23.93;;;18.30;;
5085;SDS011;4715;51.660;7.082;2022-08-18T07:42:50;22.37;;;16.67;;
5085;SDS011;4715;51.660;7.082;2022-08-18T07:45:18;22.00;;;14.93;;
5085;SDS011;4715;51.660;7.082;2022-08-18T07:47:47;18.13;;;14.37;;
5085;SDS011;4715;51.660;7.082;2022-08-18T07:50:13;17.43;;;14.50;;
5085;SDS011;4715;51.660;7.082;2022-08-18T07:52:36;21.80;;;17.03;;
5085;SDS011;4715;51.660;7.082;2022-08-18T07:55:03;16.00;;;14.30;;
5085;SDS011;4715;51.660;7.082;2022-08-18T07:57:33;16.67;;;13.93;;
5085;SDS011;4715;51.660;7.082;2022-08-18T08:00:05;18.50;;;15.80;;
5085;SDS011;4715;51.660;7.082;2022-08-18T08:02:34;23.73;;;17.37;;
5085;SDS011;4715;51.660;7.082;2022-08-18T08:05:08;20.13;;;15.97;;
5085;SDS011;4715;51.660;7.082;2022-08-18T08:07:39;20.17;;;15.97;;
5085;SDS011;4715;51.660;7.082;2022-08-18T08:10:11;18.73;;;15.20;;
5085;SDS011;4715;51.660;7.082;2022-08-18T08:12:57;15.30;;;13.40;;
5085;SDS011;4715;51.660;7.082;2022-08-18T08:15:36;16.47;;;12.93;;
5085;SDS011;4715;51.660;7.082;2022-08-18T08:18:07;15.90;;;13.30;;
5085;SDS011;4715;51.660;7.082;2022-08-18T08:20:41;16.20;;;12.93;;
5085;SDS011;4715;51.660;7.082;2022-08-18T08:23:10;12.23;;;9.87;;
5085;SDS011;4715;51.660;7.082;2022-08-18T08:25:42;12.23;;;10.47;;
5085;SDS011;4715;51.660;7.082;2022-08-18T08:28:15;13.00;;;11.60;;
5085;SDS011;4715;51.660;7.082;2022-08-18T08:30:51;11.10;;;9.90;;
5085;SDS011;4715;51.660;7.082;2022-08-18T08:33:23;8.60;;;7.83;;
5085;SDS011;4715;51.660;7.082;2022-08-18T08:35:54;9.90;;;8.90;;
5085;SDS011;4715;51.660;7.082;2022-08-18T08:38:24;9.60;;;8.80;;
5085;SDS011;4715;51.660;7.082;2022-08-18T08:40:56;10.13;;;8.17;;
5085;SDS011;4715;51.660;7.082;2022-08-18T08:43:23;7.77;;;7.03;;
5085;SDS011;4715;51.660;7.082;2022-08-18T08:46:02;7.17;;;6.57;;
5085;SDS011;4715;51.660;7.082;2022-08-18T08:48:29;6.93;;;6.43;;
5085;SDS011;4715;51.660;7.082;2022-08-18T08:50:56;7.20;;;6.60;;
5085;SDS011;4715;51.660;7.082;2022-08-18T08:53:22;7.40;;;6.80;;
5085;SDS011;4715;51.660;7.082;2022-08-18T08:55:49;7.23;;;6.63;;
5085;SDS011;4715;51.660;7.082;2022-08-18T08:58:15;6.63;;;6.03;;
5085;SDS011;4715;51.660;7.082;2022-08-18T09:00:43;6.63;;;6.13;;
5085;SDS011;4715;51.660;7.082;2022-08-18T09:03:11;6.37;;;5.97;;
5085;SDS011;4715;51.660;7.082;2022-08-18T09:05:46;5.63;;;5.23;;
5085;SDS011;4715;51.660;7.082;2022-08-18T09:11:15;6.93;;;6.43;;
5085;SDS011;4715;51.660;7.082;2022-08-18T09:13:58;6.70;;;6.20;;
5085;SDS011;4715;51.660;7.082;2022-08-18T09:16:52;7.07;;;6.57;;
5085;SDS011;4715;51.660;7.082;2022-08-18T09:22:14;6.07;;;5.57;;
5085;SDS011;4715;51.660;7.082;2022-08-18T09:24:46;5.80;;;5.40;;
5085;SDS011;4715;51.660;7.082;2022-08-18T09:27:11;7.53;;;6.83;;
5085;SDS011;4715;51.660;7.082;2022-08-18T09:29:45;5.73;;;5.30;;
5085;SDS011;4715;51.660;7.082;2022-08-18T09:32:30;6.30;;;5.87;;
5085;SDS011;4715;51.660;7.082;2022-08-18T09:35:17;6.30;;;5.90;;
5085;SDS011;4715;51.660;7.082;2022-08-18T09:37:53;5.63;;;5.17;;
5085;SDS011;4715;51.660;7.082;2022-08-18T09:40:31;4.90;;;4.60;;
5085;SDS011;4715;51.660;7.082;2022-08-18T09:43:13;6.50;;;6.00;;
5085;SDS011;4715;51.660;7.082;2022-08-18T09:45:54;4.60;;;4.23;;
5085;SDS011;4715;51.660;7.082;2022-08-18T09:48:26;4.30;;;4.00;;
5085;SDS011;4715;51.660;7.082;2022-08-18T09:50:56;5.60;;;5.20;;
5085;SDS011;4715;51.660;7.082;2022-08-18T09:53:55;6.00;;;5.50;;
5085;SDS011;4715;51.660;7.082;2022-08-18T09:56:59;4.40;;;4.10;;
5085;SDS011;4715;51.660;7.082;2022-08-18T09:59:52;5.73;;;5.40;;
5085;SDS011;4715;51.660;7.082;2022-08-18T10:05:34;4.80;;;4.33;;
5085;SDS011;4715;51.660;7.082;2022-08-18T10:08:24;4.57;;;4.30;;
5085;SDS011;4715;51.660;7.082;2022-08-18T10:10:59;5.40;;;4.90;;
5085;SDS011;4715;51.660;7.082;2022-08-18T10:13:39;6.00;;;5.50;;
5085;SDS011;4715;51.660;7.082;2022-08-18T10:16:08;6.77;;;6.17;;
5085;SDS011;4715;51.660;7.082;2022-08-18T10:18:43;6.83;;;6.20;;
5085;SDS011;4715;51.660;7.082;2022-08-18T10:21:15;6.13;;;5.67;;
5085;SDS011;4715;51.660;7.082;2022-08-18T10:23:46;5.43;;;5.00;;
5085;SDS011;4715;51.660;7.082;2022-08-18T10:38:12;5.40;;;5.10;;
5085;SDS011;4715;51.660;7.082;2022-08-18T10:40:38;5.43;;;5.13;;
5085;SDS011;4715;51.660;7.082;2022-08-18T10:43:06;5.63;;;5.33;;
5085;SDS011;4715;51.660;7.082;2022-08-18T10:45:33;5.70;;;5.40;;
5085;SDS011;4715;51.660;7.082;2022-08-18T10:47:57;6.73;;;6.30;;
5085;SDS011;4715;51.660;7.082;2022-08-18T10:50:32;6.40;;;5.97;;
5085;SDS011;4715;51.660;7.082;2022-08-18T10:53:01;5.80;;;5.40;;
5085;SDS011;4715;51.660;7.082;2022-08-18T10:55:31;5.70;;;5.30;;
5085;SDS011;4715;51.660;7.082;2022-08-18T10:58:11;5.17;;;4.87;;
5085;SDS011;4715;51.660;7.082;2022-08-18T11:01:02;5.83;;;5.43;;
5085;SDS011;4715;51.660;7.082;2022-08-18T11:03:36;6.50;;;4.73;;
5085;SDS011;4715;51.660;7.082;2022-08-18T11:06:09;4.70;;;4.40;;
5085;SDS011;4715;51.660;7.082;2022-08-18T11:08:41;7.30;;;6.80;;
5085;SDS011;4715;51.660;7.082;2022-08-18T11:13:57;4.87;;;4.50;;
5085;SDS011;4715;51.660;7.082;2022-08-18T11:16:33;4.77;;;4.37;;
5085;SDS011;4715;51.660;7.082;2022-08-18T11:19:05;5.73;;;5.33;;
5085;SDS011;4715;51.660;7.082;2022-08-18T11:21:30;5.57;;;5.17;;
5085;SDS011;4715;51.660;7.082;2022-08-18T11:24:04;5.17;;;4.77;;
5085;SDS011;4715;51.660;7.082;2022-08-18T11:26:28;4.63;;;4.43;;
5085;SDS011;4715;51.660;7.082;2022-08-18T11:28:51;4.80;;;4.03;;
5085;SDS011;4715;51.660;7.082;2022-08-18T11:31:17;5.10;;;4.70;;
5085;SDS011;4715;51.660;7.082;2022-08-18T11:33:39;5.23;;;4.93;;
5085;SDS011;4715;51.660;7.082;2022-08-18T11:36:01;3.93;;;3.73;;
5085;SDS011;4715;51.660;7.082;2022-08-18T11:38:23;4.37;;;4.10;;
5085;SDS011;4715;51.660;7.082;2022-08-18T11:40:49;4.47;;;4.27;;
5085;SDS011;4715;51.660;7.082;2022-08-18T11:43:16;3.80;;;3.60;;
5085;SDS011;4715;51.660;7.082;2022-08-18T11:45:48;3.80;;;3.60;;
5085;SDS011;4715;51.660;7.082;2022-08-18T11:48:18;3.90;;;3.70;;
5085;SDS011;4715;51.660;7.082;2022-08-18T11:50:46;3.83;;;3.63;;
5085;SDS011;4715;51.660;7.082;2022-08-18T11:53:12;4.10;;;3.90;;
5085;SDS011;4715;51.660;7.082;2022-08-18T11:55:42;4.03;;;3.83;;
5085;SDS011;4715;51.660;7.082;2022-08-18T11:58:05;3.33;;;3.17;;
5085;SDS011;4715;51.660;7.082;2022-08-18T12:00:40;3.60;;;3.40;;
5085;SDS011;4715;51.660;7.082;2022-08-18T12:03:18;3.77;;;3.57;;
5085;SDS011;4715;51.660;7.082;2022-08-18T12:05:52;3.97;;;3.77;;
5085;SDS011;4715;51.660;7.082;2022-08-18T12:08:22;4.03;;;3.83;;
5085;SDS011;4715;51.660;7.082;2022-08-18T12:11:00;4.23;;;3.80;;
5085;SDS011;4715;51.660;7.082;2022-08-18T12:13:26;3.20;;;3.10;;
5085;SDS011;4715;51.660;7.082;2022-08-18T12:18:31;3.83;;;3.63;;
5085;SDS011;4715;51.660;7.082;2022-08-18T12:20:53;3.20;;;3.00;;
5085;SDS011;4715;51.660;7.082;2022-08-18T12:23:15;4.00;;;3.80;;
5085;SDS011;4715;51.660;7.082;2022-08-18T12:25:39;3.90;;;3.60;;
5085;SDS011;4715;51.660;7.082;2022-08-18T12:28:01;3.70;;;3.50;;
5085;SDS011;4715;51.660;7.082;2022-08-18T12:30:23;3.23;;;3.07;;
5085;SDS011;4715;51.660;7.082;2022-08-18T12:32:45;4.20;;;3.90;;
5085;SDS011;4715;51.660;7.082;2022-08-18T12:35:09;4.40;;;4.20;;
5085;SDS011;4715;51.660;7.082;2022-08-18T12:37:32;3.97;;;3.77;;
5085;SDS011;4715;51.660;7.082;2022-08-18T12:39:55;3.33;;;3.23;;
5085;SDS011;4715;51.660;7.082;2022-08-18T12:42:18;3.40;;;3.20;;
5085;SDS011;4715;51.660;7.082;2022-08-18T12:44:40;3.80;;;3.60;;
5085;SDS011;4715;51.660;7.082;2022-08-18T12:47:05;4.10;;;3.90;;
5085;SDS011;4715;51.660;7.082;2022-08-18T12:49:31;3.60;;;3.40;;
5085;SDS011;4715;51.660;7.082;2022-08-18T12:51:54;3.97;;;3.77;;
5085;SDS011;4715;51.660;7.082;2022-08-18T12:54:17;3.87;;;3.67;;
5085;SDS011;4715;51.660;7.082;2022-08-18T12:56:39;4.17;;;3.97;;
5085;SDS011;4715;51.660;7.082;2022-08-18T12:59:03;4.07;;;3.87;;
5085;SDS011;4715;51.660;7.082;2022-08-18T13:01:27;3.63;;;3.53;;
5085;SDS011;4715;51.660;7.082;2022-08-18T13:03:51;3.57;;;3.27;;
5085;SDS011;4715;51.660;7.082;2022-08-18T13:06:14;3.57;;;3.37;;
5085;SDS011;4715;51.660;7.082;2022-08-18T13:08:40;3.90;;;3.70;;
5085;SDS011;4715;51.660;7.082;2022-08-18T13:11:05;3.30;;;3.20;;
5085;SDS011;4715;51.660;7.082;2022-08-18T13:13:30;3.43;;;3.23;;
5085;SDS011;4715;51.660;7.082;2022-08-18T13:15:52;3.40;;;3.30;;
5085;SDS011;4715;51.660;7.082;2022-08-18T13:18:15;3.60;;;3.40;;
5085;SDS011;4715;51.660;7.082;2022-08-18T13:20:41;3.83;;;3.63;;
5085;SDS011;4715;51.660;7.082;2022-08-18T13:23:05;3.37;;;3.20;;
5085;SDS011;4715;51.660;7.082;2022-08-18T13:25:30;3.60;;;3.40;;
5085;SDS011;4715;51.660;7.082;2022-08-18T13:27:57;3.70;;;3.40;;
5085;SDS011;4715;51.660;7.082;2022-08-18T13:30:22;4.13;;;3.83;;
5085;SDS011;4715;51.660;7.082;2022-08-18T13:32:44;4.17;;;3.90;;
5085;SDS011;4715;51.660;7.082;2022-08-18T13:35:07;3.80;;;3.50;;
5085;SDS011;4715;51.660;7.082;2022-08-18T13:37:30;4.40;;;4.10;;
5085;SDS011;4715;51.660;7.082;2022-08-18T13:39:52;4.80;;;4.40;;
5085;SDS011;4715;51.660;7.082;2022-08-18T13:42:16;3.93;;;3.73;;
5085;SDS011;4715;51.660;7.082;2022-08-18T13:44:38;3.83;;;3.63;;
5085;SDS011;4715;51.660;7.082;2022-08-18T13:47:01;4.73;;;4.43;;
5085;SDS011;4715;51.660;7.082;2022-08-18T13:49:37;4.27;;;4.07;;
5085;SDS011;4715;51.660;7.082;2022-08-18T13:51:59;4.03;;;3.83;;
5085;SDS011;4715;51.660;7.082;2022-08-18T13:54:22;4.50;;;4.30;;
5085;SDS011;4715;51.660;7.082;2022-08-18T13:56:45;4.90;;;4.60;;
5085;SDS011;4715;51.660;7.082;2022-08-18T14:01:38;5.07;;;4.77;;
5085;SDS011;4715;51.660;7.082;2022-08-18T14:04:00;5.37;;;4.97;;
5085;SDS011;4715;51.660;7.082;2022-08-18T14:06:22;5.17;;;4.87;;
5085;SDS011;4715;51.660;7.082;2022-08-18T14:08:46;4.60;;;4.40;;
5085;SDS011;4715;51.660;7.082;2022-08-18T14:11:08;5.03;;;4.73;;
5085;SDS011;4715;51.660;7.082;2022-08-18T14:13:30;4.63;;;4.33;;
5085;SDS011;4715;51.660;7.082;2022-08-18T14:15:53;4.20;;;4.00;;
5085;SDS011;4715;51.660;7.082;2022-08-18T14:18:18;4.27;;;4.07;;
5085;SDS011;4715;51.660;7.082;2022-08-18T14:20:40;4.60;;;4.40;;
5085;SDS011;4715;51.660;7.082;2022-08-18T14:23:19;4.30;;;3.90;;
5085;SDS011;4715;51.660;7.082;2022-08-18T14:25:59;3.80;;;3.60;;
5085;SDS011;4715;51.660;7.082;2022-08-18T14:28:38;4.83;;;4.53;;
5085;SDS011;4715;51.660;7.082;2022-08-18T14:31:01;4.00;;;3.77;;
5085;SDS011;4715;51.660;7.082;2022-08-18T14:33:25;3.70;;;3.50;;
5085;SDS011;4715;51.660;7.082;2022-08-18T14:35:49;4.00;;;3.80;;
5085;SDS011;4715;51.660;7.082;2022-08-18T14:38:14;4.27;;;4.03;;
5085;SDS011;4715;51.660;7.082;2022-08-18T14:40:36;4.40;;;4.10;;
5085;SDS011;4715;51.660;7.082;2022-08-18T14:43:00;3.73;;;3.53;;
5085;SDS011;4715;51.660;7.082;2022-08-18T14:45:23;3.80;;;3.50;;
5085;SDS011;4715;51.660;7.082;2022-08-18T14:47:45;4.17;;;3.77;;
5085;SDS011;4715;51.660;7.082;2022-08-18T14:50:09;4.00;;;3.80;;
5085;SDS011;4715;51.660;7.082;2022-08-18T14:52:32;3.90;;;3.70;;
5085;SDS011;4715;51.660;7.082;2022-08-18T14:54:54;3.90;;;3.57;;
5085;SDS011;4715;51.660;7.082;2022-08-18T14:57:17;4.30;;;4.00;;
5085;SDS011;4715;51.660;7.082;2022-08-18T14:59:39;3.70;;;3.50;;
5085;SDS011;4715;51.660;7.082;2022-08-18T15:02:02;3.70;;;3.50;;
5085;SDS011;4715;51.660;7.082;2022-08-18T15:04:25;2.90;;;2.80;;
5085;SDS011;4715;51.660;7.082;2022-08-18T15:06:50;3.20;;;3.10;;
5085;SDS011;4715;51.660;7.082;2022-08-18T15:09:12;2.80;;;2.70;;
5085;SDS011;4715;51.660;7.082;2022-08-18T15:11:34;3.37;;;3.10;;
5085;SDS011;4715;51.660;7.082;2022-08-18T15:13:56;2.50;;;2.40;;
5085;SDS011;4715;51.660;7.082;2022-08-18T15:16:19;2.93;;;2.83;;
5085;SDS011;4715;51.660;7.082;2022-08-18T15:18:43;2.80;;;2.60;;
5085;SDS011;4715;51.660;7.082;2022-08-18T15:21:06;3.50;;;3.30;;
5085;SDS011;4715;51.660;7.082;2022-08-18T15:23:53;2.90;;;2.80;;
5085;SDS011;4715;51.660;7.082;2022-08-18T15:26:32;2.80;;;2.60;;
5085;SDS011;4715;51.660;7.082;2022-08-18T15:28:55;2.40;;;2.30;;